createdAt,value
2017-07-02T00:00:31.462Z,46.2
2017-07-02T00:01:33.598Z,46.3
2017-07-02T00:02:35.398Z,46.3
2017-07-02T00:03:37.534Z,46.2
2017-07-02T00:04:39.671Z,46.5
2017-07-02T00:05:41.805Z,46.3
2017-07-02T00:06:43.942Z,46.3
2017-07-02T00:07:45.415Z,46.1
2017-07-02T00:08:46.532Z,46.3
2017-07-02T00:09:48.331Z,46.1
2017-07-02T00:10:50.467Z,46.6
2017-07-02T00:11:52.268Z,46.1
2017-07-02T00:12:54.403Z,46.4
2017-07-02T00:13:56.541Z,46.5
2017-07-02T00:14:58.672Z,46.4
2017-07-02T00:16:00.848Z,46.4
2017-07-02T00:17:02.648Z,46.4
2017-07-02T00:18:04.784Z,46.3
2017-07-02T00:19:06.251Z,46.5
2017-07-02T00:20:08.387Z,46.3
2017-07-02T00:21:10.523Z,46.3
2017-07-02T00:22:12.656Z,46.5
2017-07-02T00:23:14.107Z,46.1
2017-07-02T00:24:15.947Z,46.5
2017-07-02T00:25:17.751Z,46.4
2017-07-02T00:26:19.884Z,46.5
2017-07-02T00:27:21.331Z,46.2
2017-07-02T00:28:23.541Z,46.2
2017-07-02T00:29:25.340Z,46.5
2017-07-02T00:30:27.474Z,46.3
2017-07-02T00:31:28.946Z,46.8
2017-07-02T00:32:31.083Z,46.3
2017-07-02T00:33:33.219Z,46.5
2017-07-02T00:34:34.998Z,46.5
2017-07-02T00:35:36.801Z,46.6
2017-07-02T00:36:38.605Z,46.3
2017-07-02T00:37:40.406Z,46.4
2017-07-02T00:38:42.190Z,46.6
2017-07-02T00:39:43.637Z,46.4
2017-07-02T00:40:45.771Z,46.6
2017-07-02T00:41:47.930Z,46.5
2017-07-02T00:42:49.736Z,46.4
2017-07-02T00:43:51.515Z,46.3
2017-07-02T00:44:52.981Z,46.6
2017-07-02T00:45:55.116Z,46.5
2017-07-02T00:46:57.252Z,46.3
2017-07-02T00:47:59.032Z,46.3
2017-07-02T00:49:01.166Z,46.3
2017-07-02T00:50:03.301Z,46.6
2017-07-02T00:51:05.437Z,46.5
2017-07-02T00:52:07.574Z,46.6
2017-07-02T00:53:09.708Z,46.8
2017-07-02T00:54:11.845Z,46.8
2017-07-02T00:55:13.649Z,46.6
2017-07-02T00:56:15.788Z,46.7
2017-07-02T00:57:17.921Z,46.6
2017-07-02T00:58:19.722Z,46.8
2017-07-02T00:59:21.526Z,46.3
2017-07-02T01:00:23.657Z,46.3
2017-07-02T01:01:25.830Z,46.3
2017-07-02T01:02:27.633Z,46.5
2017-07-02T01:03:29.411Z,46.5
2017-07-02T01:04:31.546Z,46.4
2017-07-02T01:05:33.682Z,46.3
2017-07-02T01:06:35.484Z,46.3
2017-07-02T01:07:37.302Z,46.4
2017-07-02T01:08:39.443Z,46.6
2017-07-02T01:09:40.581Z,46.8
2017-07-02T01:10:42.384Z,46.4
2017-07-02T01:11:44.530Z,46.3
2017-07-02T01:12:46.333Z,46.4
2017-07-02T01:13:48.131Z,46.4
2017-07-02T01:14:49.935Z,46.8
2017-07-02T01:15:51.407Z,46.4
2017-07-02T01:16:52.879Z,46.6
2017-07-02T01:17:54.711Z,46.8
2017-07-02T01:18:56.848Z,46.3
2017-07-02T01:19:58.983Z,46.3
2017-07-02T01:21:00.761Z,46.7
2017-07-02T01:22:02.560Z,46.3
2017-07-02T01:23:04.372Z,46.3
2017-07-02T01:24:06.505Z,46.4
2017-07-02T01:25:08.322Z,46.3
2017-07-02T01:26:10.105Z,46.4
2017-07-02T01:27:12.241Z,46.3
2017-07-02T01:28:14.025Z,46.3
2017-07-02T01:29:16.159Z,46.4
2017-07-02T01:30:17.612Z,46.7
2017-07-02T01:31:19.749Z,46.7
2017-07-02T01:32:21.216Z,46.7
2017-07-02T01:33:23.348Z,46.2
2017-07-02T01:34:25.500Z,46.2
2017-07-02T01:35:26.931Z,46.7
2017-07-02T01:36:29.084Z,46.6
2017-07-02T01:37:30.886Z,46.3
2017-07-02T01:38:32.688Z,46.4
2017-07-02T01:39:34.157Z,46.5
2017-07-02T01:40:35.961Z,46.5
2017-07-02T01:41:37.428Z,46.6
2017-07-02T01:42:38.883Z,46.5
2017-07-02T01:43:41.014Z,46.6
2017-07-02T01:44:42.796Z,46.5
2017-07-02T01:45:44.599Z,46.5
2017-07-02T01:46:46.402Z,46.2
2017-07-02T01:47:48.183Z,46.4
2017-07-02T01:48:49.986Z,46.5
2017-07-02T01:49:51.785Z,46.5
2017-07-02T01:50:52.575Z,46.2
2017-07-02T01:51:54.379Z,46.6
2017-07-02T01:52:56.513Z,46.4
2017-07-02T01:53:58.650Z,46.1
2017-07-02T01:55:00.121Z,46.4
2017-07-02T01:56:01.567Z,46.4
2017-07-02T01:57:03.347Z,46.4
2017-07-02T01:58:05.151Z,46.5
2017-07-02T01:59:07.284Z,46.4
2017-07-02T02:00:08.397Z,46.4
2017-07-02T02:01:10.534Z,46.1
2017-07-02T02:02:12.674Z,46.4
2017-07-02T02:03:14.807Z,46.1
2017-07-02T02:04:16.942Z,46.4
2017-07-02T02:05:18.778Z,46.4
2017-07-02T02:06:20.580Z,46.4
2017-07-02T02:07:22.054Z,46.5
2017-07-02T02:08:24.207Z,46.4
2017-07-02T02:09:26.341Z,46.4
2017-07-02T02:10:28.476Z,46.4
2017-07-02T02:11:30.610Z,46.7
2017-07-02T02:12:32.412Z,46.1
2017-07-02T02:13:34.191Z,46.5
2017-07-02T02:14:35.663Z,46.4
2017-07-02T02:15:37.467Z,46.5
2017-07-02T02:16:39.604Z,46.3
2017-07-02T02:17:41.387Z,46.4
2017-07-02T02:18:43.521Z,46.2
2017-07-02T02:19:45.326Z,46.1
2017-07-02T02:20:47.126Z,46.1
2017-07-02T02:21:49.260Z,46.6
2017-07-02T02:22:51.395Z,46.2
2017-07-02T02:23:53.197Z,46.3
2017-07-02T02:24:54.977Z,46.5
2017-07-02T02:25:56.447Z,46.3
2017-07-02T02:26:58.582Z,46.3
2017-07-02T02:28:00.059Z,46.1
2017-07-02T02:29:01.862Z,46.2
2017-07-02T02:30:03.664Z,46.3
2017-07-02T02:31:05.464Z,46.1
2017-07-02T02:32:07.598Z,46.6
2017-07-02T02:33:09.400Z,46.4
2017-07-02T02:34:11.536Z,46.2
2017-07-02T02:35:13.347Z,46.2
2017-07-02T02:36:14.795Z,46.3
2017-07-02T02:37:16.304Z,46.3
2017-07-02T02:38:18.439Z,46.1
2017-07-02T02:39:19.883Z,46.3
2017-07-02T02:40:22.036Z,46.3
2017-07-02T02:41:23.470Z,46.1
2017-07-02T02:42:25.603Z,46.2
2017-07-02T02:43:27.737Z,46.3
2017-07-02T02:44:29.184Z,46.4
2017-07-02T02:45:30.986Z,46.3
2017-07-02T02:46:32.103Z,46.5
2017-07-02T02:47:34.291Z,46.2
2017-07-02T02:48:36.094Z,46.5
2017-07-02T02:49:37.890Z,46.1
2017-07-02T02:50:39.690Z,46.2
2017-07-02T02:51:41.471Z,46.5
2017-07-02T02:52:43.279Z,46.2
2017-07-02T02:53:44.752Z,46.3
2017-07-02T02:54:46.557Z,46.2
2017-07-02T02:55:48.354Z,46.2
2017-07-02T02:56:49.827Z,46.2
2017-07-02T02:57:51.019Z,46.2
2017-07-02T02:58:52.821Z,46.2
2017-07-02T02:59:54.624Z,46.4
2017-07-02T03:00:56.406Z,46.2
2017-07-02T03:01:58.206Z,46.3
2017-07-02T03:03:00.011Z,46.2
2017-07-02T03:04:02.149Z,46.3
2017-07-02T03:05:03.262Z,46.3
2017-07-02T03:06:05.067Z,46.2
2017-07-02T03:07:06.872Z,46.3
2017-07-02T03:08:09.008Z,46.2
2017-07-02T03:09:10.455Z,46.2
2017-07-02T03:10:12.594Z,46.3
2017-07-02T03:11:14.729Z,46.2
2017-07-02T03:12:16.871Z,46.3
2017-07-02T03:13:19.057Z,46.3
2017-07-02T03:14:21.197Z,46.2
2017-07-02T03:15:23.001Z,46.3
2017-07-02T03:16:25.136Z,46.4
2017-07-02T03:17:27.271Z,46.3
2017-07-02T03:18:28.719Z,46.3
2017-07-02T03:19:30.523Z,46.3
2017-07-02T03:20:32.326Z,46.2
2017-07-02T03:21:34.107Z,46.3
2017-07-02T03:22:36.243Z,46.3
2017-07-02T03:23:38.024Z,46.2
2017-07-02T03:24:40.156Z,46.3
2017-07-02T03:25:41.623Z,46
2017-07-02T03:26:43.079Z,46.2
2017-07-02T03:27:44.551Z,46
2017-07-02T03:28:46.329Z,46.2
2017-07-02T03:29:48.133Z,46.2
2017-07-02T03:30:49.937Z,46.2
2017-07-02T03:31:51.746Z,46
2017-07-02T03:32:53.222Z,46.3
2017-07-02T03:33:54.703Z,46.3
2017-07-02T03:34:56.834Z,46.1
2017-07-02T03:35:58.680Z,46.2
2017-07-02T03:37:00.485Z,46.3
2017-07-02T03:38:02.285Z,46.3
2017-07-02T03:39:04.419Z,46.3
2017-07-02T03:40:05.870Z,46.3
2017-07-02T03:41:07.673Z,46.1
2017-07-02T03:42:09.809Z,46.1
2017-07-02T03:43:11.615Z,46.3
2017-07-02T03:44:13.086Z,46.3
2017-07-02T03:45:15.221Z,46
2017-07-02T03:46:17.024Z,46.2
2017-07-02T03:47:18.469Z,46.2
2017-07-02T03:48:20.610Z,46.3
2017-07-02T03:49:22.410Z,46.3
2017-07-02T03:50:24.216Z,46.2
2017-07-02T03:51:25.663Z,46.2
2017-07-02T03:52:27.466Z,46.3
2017-07-02T03:53:29.249Z,46.2
2017-07-02T03:54:31.433Z,46.3
2017-07-02T03:55:32.903Z,46.3
2017-07-02T03:56:35.039Z,46.1
2017-07-02T03:57:36.511Z,46.1
2017-07-02T03:58:38.641Z,46
2017-07-02T03:59:40.093Z,45.9
2017-07-02T04:00:41.542Z,45.7
2017-07-02T04:01:42.985Z,45.8
2017-07-02T04:02:44.791Z,45.8
2017-07-02T04:03:46.595Z,45.7
2017-07-02T04:04:48.399Z,46.2
2017-07-02T04:05:50.532Z,46.5
2017-07-02T04:06:52.337Z,46.2
2017-07-02T04:07:53.453Z,46.6
2017-07-02T04:08:55.263Z,46.4
2017-07-02T04:09:57.100Z,46.4
2017-07-02T04:10:58.556Z,46.3
2017-07-02T04:12:00.361Z,46.4
2017-07-02T04:13:01.810Z,46.1
2017-07-02T04:14:03.948Z,46.2
2017-07-02T04:15:06.084Z,46.2
2017-07-02T04:16:08.221Z,46
2017-07-02T04:17:10.028Z,45.7
2017-07-02T04:18:12.160Z,46
2017-07-02T04:19:13.941Z,46.1
2017-07-02T04:20:15.773Z,45.7
2017-07-02T04:21:17.908Z,45.9
2017-07-02T04:22:19.692Z,45.7
2017-07-02T04:23:21.148Z,45.9
2017-07-02T04:24:22.611Z,45.7
2017-07-02T04:25:24.423Z,45.7
2017-07-02T04:26:26.555Z,46
2017-07-02T04:27:28.361Z,45.7
2017-07-02T04:28:30.165Z,45.9
2017-07-02T04:29:32.296Z,45.7
2017-07-02T04:30:34.074Z,45.7
2017-07-02T04:31:35.880Z,45.9
2017-07-02T04:32:37.682Z,46
2017-07-02T04:33:39.816Z,45.9
2017-07-02T04:34:40.934Z,45.7
2017-07-02T04:35:42.716Z,45.9
2017-07-02T04:36:44.856Z,45.8
2017-07-02T04:37:46.636Z,45.7
2017-07-02T04:38:48.414Z,45.6
2017-07-02T04:39:50.551Z,45.4
2017-07-02T04:40:52.686Z,45.5
2017-07-02T04:41:54.155Z,45.5
2017-07-02T04:42:55.932Z,45.4
2017-07-02T04:43:58.074Z,45.9
2017-07-02T04:44:59.525Z,45.9
2017-07-02T04:46:01.329Z,45.5
2017-07-02T04:47:03.473Z,45.6
2017-07-02T04:48:04.922Z,45.4
2017-07-02T04:49:07.057Z,45.3
2017-07-02T04:50:09.196Z,45.3
2017-07-02T04:51:11.001Z,45
2017-07-02T04:52:12.476Z,45
2017-07-02T04:53:14.288Z,45.2
2017-07-02T04:54:16.426Z,45.1
2017-07-02T04:55:18.562Z,45.3
2017-07-02T04:56:20.365Z,44.8
2017-07-02T04:57:22.173Z,44.7
2017-07-02T04:58:23.625Z,44.8
2017-07-02T04:59:25.104Z,44.7
2017-07-02T05:00:26.223Z,44.7
2017-07-02T05:01:27.341Z,44.7
2017-07-02T05:02:29.477Z,44.7
2017-07-02T05:03:30.954Z,44.6
2017-07-02T05:04:32.761Z,44.6
2017-07-02T05:05:34.563Z,44.4
2017-07-02T05:06:36.364Z,44.5
2017-07-02T05:07:38.500Z,44.5
2017-07-02T05:08:40.638Z,44.6
2017-07-02T05:09:41.757Z,44.8
2017-07-02T05:10:43.559Z,44.7
2017-07-02T05:11:45.361Z,44.9
2017-07-02T05:12:47.171Z,45.1
2017-07-02T05:13:49.307Z,44.8
2017-07-02T05:14:51.087Z,45.1
2017-07-02T05:15:52.538Z,45
2017-07-02T05:16:54.673Z,45
2017-07-02T05:17:56.809Z,45.3
2017-07-02T05:18:58.617Z,45.2
2017-07-02T05:20:00.754Z,45.3
2017-07-02T05:21:02.894Z,45.5
2017-07-02T05:22:04.675Z,45.6
2017-07-02T05:23:06.814Z,45.4
2017-07-02T05:24:08.950Z,45.4
2017-07-02T05:25:10.750Z,45.3
2017-07-02T05:26:12.898Z,45.5
2017-07-02T05:27:14.346Z,45.4
2017-07-02T05:28:16.148Z,45.5
2017-07-02T05:29:17.594Z,45.3
2017-07-02T05:30:19.731Z,45.6
2017-07-02T05:31:21.867Z,45.3
2017-07-02T05:32:24.003Z,45.3
2017-07-02T05:33:25.450Z,45.4
2017-07-02T05:34:27.584Z,45.3
2017-07-02T05:35:29.721Z,45.5
2017-07-02T05:36:31.193Z,45.3
2017-07-02T05:37:33.327Z,45.1
2017-07-02T05:38:35.464Z,45.2
2017-07-02T05:39:37.601Z,45.4
2017-07-02T05:40:39.737Z,45.3
2017-07-02T05:41:41.539Z,45.2
2017-07-02T05:42:42.992Z,45.2
2017-07-02T05:43:45.129Z,45.1
2017-07-02T05:44:46.933Z,45
2017-07-02T05:45:49.069Z,44.9
2017-07-02T05:46:50.875Z,45
2017-07-02T05:47:52.683Z,45.2
2017-07-02T05:48:54.818Z,44.7
2017-07-02T05:49:56.958Z,45
2017-07-02T05:50:58.411Z,44.9
2017-07-02T05:52:00.222Z,44.8
2017-07-02T05:53:02.032Z,44.5
2017-07-02T05:54:04.175Z,44.7
2017-07-02T05:55:05.976Z,44.8
2017-07-02T05:56:08.122Z,45
2017-07-02T05:57:09.897Z,44.9
2017-07-02T05:58:11.756Z,45.1
2017-07-02T05:59:13.207Z,45
2017-07-02T06:00:15.346Z,44.6
2017-07-02T06:01:17.126Z,44.5
2017-07-02T06:02:18.932Z,44.7
2017-07-02T06:03:20.456Z,44.6
2017-07-02T06:04:22.260Z,44.6
2017-07-02T06:05:24.063Z,44.7
2017-07-02T06:06:25.867Z,44.7
2017-07-02T06:07:28.000Z,44.6
2017-07-02T06:08:30.134Z,44.5
2017-07-02T06:09:32.270Z,44.6
2017-07-02T06:10:34.409Z,44.4
2017-07-02T06:11:36.548Z,44.1
2017-07-02T06:12:38.683Z,44.1
2017-07-02T06:13:40.153Z,44.3
2017-07-02T06:14:41.955Z,44.2
2017-07-02T06:15:43.736Z,44.3
2017-07-02T06:16:45.538Z,43.8
2017-07-02T06:17:47.677Z,43.9
2017-07-02T06:18:49.811Z,44.3
2017-07-02T06:19:51.593Z,44
2017-07-02T06:20:53.730Z,44.1
2017-07-02T06:21:55.864Z,43.6
2017-07-02T06:22:57.646Z,43.7
2017-07-02T06:23:59.430Z,44
2017-07-02T06:25:01.564Z,43.8
2017-07-02T06:26:03.366Z,44
2017-07-02T06:27:05.503Z,43.7
2017-07-02T06:28:07.639Z,44
2017-07-02T06:29:09.446Z,44.1
2017-07-02T06:30:11.235Z,44.3
2017-07-02T06:31:12.714Z,44.1
2017-07-02T06:32:14.519Z,44
2017-07-02T06:33:16.660Z,44.4
2017-07-02T06:34:18.797Z,44.2
2017-07-02T06:35:20.932Z,44.1
2017-07-02T06:36:23.066Z,44.3
2017-07-02T06:37:24.535Z,44.2
2017-07-02T06:38:26.679Z,43.9
2017-07-02T06:39:28.813Z,43.8
2017-07-02T06:40:30.630Z,44.3
2017-07-02T06:41:32.437Z,44
2017-07-02T06:42:34.573Z,44
2017-07-02T06:43:36.380Z,44.3
2017-07-02T06:44:38.514Z,43.8
2017-07-02T06:45:39.986Z,43.6
2017-07-02T06:46:41.457Z,43.8
2017-07-02T06:47:43.596Z,43.9
2017-07-02T06:48:45.379Z,43.7
2017-07-02T06:49:46.853Z,43.8
2017-07-02T06:50:48.990Z,43.9
2017-07-02T06:51:51.125Z,43.7
2017-07-02T06:52:52.929Z,44
2017-07-02T06:53:54.735Z,43.9
2017-07-02T06:54:56.876Z,43.9
2017-07-02T06:55:59.009Z,43.7
2017-07-02T06:57:01.146Z,43.9
2017-07-02T06:58:03.284Z,43.9
2017-07-02T06:59:05.065Z,44
2017-07-02T07:00:06.203Z,43.9
2017-07-02T07:01:08.029Z,43.8
2017-07-02T07:02:10.150Z,43.8
2017-07-02T07:03:11.956Z,43.7
2017-07-02T07:04:13.761Z,43.6
2017-07-02T07:05:15.618Z,43.7
2017-07-02T07:06:17.421Z,43.8
2017-07-02T07:07:18.560Z,43.8
2017-07-02T07:08:20.698Z,43.9
2017-07-02T07:09:22.167Z,43.9
2017-07-02T07:10:24.302Z,43.7
2017-07-02T07:11:26.438Z,43.7
2017-07-02T07:12:28.576Z,44
2017-07-02T07:13:30.052Z,43.7
2017-07-02T07:14:32.189Z,43.7
2017-07-02T07:15:33.994Z,43.5
2017-07-02T07:16:35.469Z,43.6
2017-07-02T07:17:37.278Z,43.6
2017-07-02T07:18:39.085Z,43.7
2017-07-02T07:19:41.247Z,43.6
2017-07-02T07:20:43.129Z,43.6
2017-07-02T07:21:45.274Z,43.5
2017-07-02T07:22:47.413Z,43.7
2017-07-02T07:23:49.549Z,43.7
2017-07-02T07:24:51.690Z,43.4
2017-07-02T07:25:53.168Z,43.4
2017-07-02T07:26:54.623Z,43.4
2017-07-02T07:27:56.424Z,43.6
2017-07-02T07:28:58.227Z,43.7
2017-07-02T07:30:00.013Z,43.9
2017-07-02T07:31:02.149Z,43.6
2017-07-02T07:32:03.964Z,43.9
2017-07-02T07:33:05.762Z,43.6
2017-07-02T07:34:07.546Z,43.7
2017-07-02T07:35:09.686Z,43.5
2017-07-02T07:36:11.523Z,43.8
2017-07-02T07:37:13.306Z,43.6
2017-07-02T07:38:15.089Z,43.9
2017-07-02T07:39:17.229Z,43.9
2017-07-02T07:40:19.026Z,43.6
2017-07-02T07:41:21.265Z,43.7
2017-07-02T07:42:23.051Z,43.5
2017-07-02T07:43:24.524Z,43.9
2017-07-02T07:44:26.322Z,43.8
2017-07-02T07:45:28.130Z,43.7
2017-07-02T07:46:29.982Z,43.7
2017-07-02T07:47:31.431Z,43.8
2017-07-02T07:48:33.235Z,43.8
2017-07-02T07:49:35.025Z,43.6
2017-07-02T07:50:37.161Z,44
2017-07-02T07:51:39.351Z,43.8
2017-07-02T07:52:41.494Z,43.7
2017-07-02T07:53:43.298Z,43.8
2017-07-02T07:54:45.434Z,43.9
2017-07-02T07:55:46.904Z,43.9
2017-07-02T07:56:49.142Z,44
2017-07-02T07:57:50.944Z,44.1
2017-07-02T07:58:53.080Z,44
2017-07-02T07:59:55.218Z,43.9
2017-07-02T08:00:57.023Z,43.7
2017-07-02T08:01:58.135Z,44.1
2017-07-02T08:03:00.271Z,43.7
2017-07-02T08:04:01.718Z,44.1
2017-07-02T08:05:03.519Z,43.7
2017-07-02T08:06:05.301Z,43.7
2017-07-02T08:07:07.431Z,44.1
2017-07-02T08:08:09.238Z,43.9
2017-07-02T08:09:11.374Z,44.1
2017-07-02T08:10:13.512Z,43.9
2017-07-02T08:11:14.299Z,43.8
2017-07-02T08:12:15.776Z,43.7
2017-07-02T08:13:17.577Z,43.9
2017-07-02T08:14:19.355Z,44.1
2017-07-02T08:15:21.141Z,44.1
2017-07-02T08:16:22.945Z,43.6
2017-07-02T08:17:25.083Z,44
2017-07-02T08:18:26.893Z,43.8
2017-07-02T08:19:28.695Z,43.8
2017-07-02T08:20:30.836Z,44
2017-07-02T08:21:32.637Z,44
2017-07-02T08:22:34.773Z,43.7
2017-07-02T08:23:36.908Z,43.6
2017-07-02T08:24:39.042Z,43.8
2017-07-02T08:25:40.827Z,43.9
2017-07-02T08:26:42.966Z,44
2017-07-02T08:27:44.819Z,44.2
2017-07-02T08:28:46.631Z,43.9
2017-07-02T08:29:48.436Z,43.9
2017-07-02T08:30:50.214Z,43.9
2017-07-02T08:31:52.016Z,43.9
2017-07-02T08:32:53.485Z,43.8
2017-07-02T08:33:55.622Z,43.5
2017-07-02T08:34:56.755Z,44
2017-07-02T08:35:58.554Z,43.5
2017-07-02T08:37:00.692Z,43.9
2017-07-02T08:38:02.827Z,44
2017-07-02T08:39:04.638Z,43.6
2017-07-02T08:40:06.108Z,43.9
2017-07-02T08:41:07.614Z,43.5
2017-07-02T08:42:09.399Z,43.9
2017-07-02T08:43:11.204Z,43.9
2017-07-02T08:44:12.323Z,43.9
2017-07-02T08:45:14.461Z,43.9
2017-07-02T08:46:15.920Z,43.9
2017-07-02T08:47:17.724Z,43.9
2017-07-02T08:48:19.531Z,43.9
2017-07-02T08:49:21.334Z,43.9
2017-07-02T08:50:23.138Z,43.8
2017-07-02T08:51:25.274Z,43.6
2017-07-02T08:52:26.753Z,43.9
2017-07-02T08:53:28.221Z,43.8
2017-07-02T08:54:30.354Z,43.8
2017-07-02T08:55:32.163Z,43.9
2017-07-02T08:56:33.967Z,43.8
2017-07-02T08:57:36.101Z,43.9
2017-07-02T08:58:38.237Z,43.7
2017-07-02T08:59:40.377Z,43.9
2017-07-02T09:00:42.509Z,44
2017-07-02T09:01:43.980Z,43.9
2017-07-02T09:02:46.117Z,43.9
2017-07-02T09:03:47.926Z,43.8
2017-07-02T09:04:50.073Z,43.9
2017-07-02T09:05:51.876Z,43.9
2017-07-02T09:06:54.016Z,43.9
2017-07-02T09:07:55.818Z,43.8
2017-07-02T09:08:57.621Z,43.9
2017-07-02T09:09:59.762Z,43.8
2017-07-02T09:11:00.889Z,43.9
2017-07-02T09:12:03.024Z,43.8
2017-07-02T09:13:04.828Z,44
2017-07-02T09:14:06.608Z,44.2
2017-07-02T09:15:08.747Z,44
2017-07-02T09:16:10.553Z,44
2017-07-02T09:17:12.356Z,44
2017-07-02T09:18:14.158Z,43.8
2017-07-02T09:19:16.295Z,44
2017-07-02T09:20:18.101Z,44.3
2017-07-02T09:21:20.238Z,43.9
2017-07-02T09:22:22.373Z,44.1
2017-07-02T09:23:24.180Z,43.7
2017-07-02T09:24:26.321Z,44.1
2017-07-02T09:25:28.456Z,43.9
2017-07-02T09:26:30.596Z,43.9
2017-07-02T09:27:32.402Z,44.1
2017-07-02T09:28:34.183Z,44.2
2017-07-02T09:29:36.319Z,44.2
2017-07-02T09:30:37.771Z,44
2017-07-02T09:31:39.574Z,43.9
2017-07-02T09:32:41.047Z,43.6
2017-07-02T09:33:43.187Z,44
2017-07-02T09:34:45.377Z,44
2017-07-02T09:35:47.514Z,43.6
2017-07-02T09:36:49.651Z,44.1
2017-07-02T09:37:50.770Z,44
2017-07-02T09:38:52.571Z,43.8
2017-07-02T09:39:54.709Z,43.9
2017-07-02T09:40:56.181Z,44
2017-07-02T09:41:58.318Z,43.8
2017-07-02T09:42:59.772Z,44.1
2017-07-02T09:44:00.913Z,43.8
2017-07-02T09:45:03.051Z,43.8
2017-07-02T09:46:04.519Z,43.9
2017-07-02T09:47:06.298Z,43.9
2017-07-02T09:48:08.100Z,43.7
2017-07-02T09:49:09.891Z,43.7
2017-07-02T09:50:11.673Z,43.6
2017-07-02T09:51:13.476Z,43.7
2017-07-02T09:52:15.285Z,43.5
2017-07-02T09:53:17.426Z,43.8
2017-07-02T09:54:19.565Z,43.6
2017-07-02T09:55:21.700Z,43.7
2017-07-02T09:56:23.154Z,43.9
2017-07-02T09:57:24.961Z,43.6
2017-07-02T09:58:27.096Z,43.8
2017-07-02T09:59:29.232Z,43.4
2017-07-02T10:00:31.368Z,43.7
2017-07-02T10:01:32.819Z,43.7
2017-07-02T10:02:34.628Z,43.7
2017-07-02T10:03:36.766Z,43.5
2017-07-02T10:04:38.233Z,43.7
2017-07-02T10:05:39.733Z,43.6
2017-07-02T10:06:41.208Z,43.5
2017-07-02T10:07:42.991Z,43.5
2017-07-02T10:08:44.465Z,43.3
2017-07-02T10:09:45.915Z,43.5
2017-07-02T10:10:47.718Z,43.6
2017-07-02T10:11:49.858Z,43.2
2017-07-02T10:12:51.329Z,43.5
2017-07-02T10:13:52.801Z,43.5
2017-07-02T10:14:54.940Z,43.6
2017-07-02T10:15:56.410Z,43.2
2017-07-02T10:16:57.860Z,42.9
2017-07-02T10:17:59.996Z,43
2017-07-02T10:19:01.137Z,43.6
2017-07-02T10:20:02.944Z,43.3
2017-07-02T10:21:05.180Z,43
2017-07-02T10:22:07.320Z,43.1
2017-07-02T10:23:09.123Z,43.1
2017-07-02T10:24:10.931Z,43
2017-07-02T10:25:13.065Z,43.3
2017-07-02T10:26:14.537Z,43.2
2017-07-02T10:27:16.320Z,43.2
2017-07-02T10:28:18.126Z,43.3
2017-07-02T10:29:20.268Z,43.2
2017-07-02T10:30:22.403Z,42.6
2017-07-02T10:31:24.541Z,42.8
2017-07-02T10:32:26.675Z,43.1
2017-07-02T10:33:28.812Z,43.2
2017-07-02T10:34:30.633Z,42.8
2017-07-02T10:35:32.070Z,43.2
2017-07-02T10:36:33.521Z,42.8
2017-07-02T10:37:35.322Z,42.8
2017-07-02T10:38:36.774Z,42.9
2017-07-02T10:39:38.914Z,42.7
2017-07-02T10:40:40.718Z,42.8
2017-07-02T10:41:42.503Z,42.9
2017-07-02T10:42:44.306Z,43
2017-07-02T10:43:46.090Z,42.7
2017-07-02T10:44:47.895Z,42.8
2017-07-02T10:45:49.365Z,42.7
2017-07-02T10:46:50.818Z,42.8
2017-07-02T10:47:51.946Z,42.9
2017-07-02T10:48:54.083Z,42.9
2017-07-02T10:49:55.864Z,42.8
2017-07-02T10:50:57.316Z,42.9
2017-07-02T10:51:59.099Z,42.9
2017-07-02T10:53:01.238Z,42.8
2017-07-02T10:54:03.375Z,42.9
2017-07-02T10:55:05.512Z,42.8
2017-07-02T10:56:06.962Z,42.7
2017-07-02T10:57:09.115Z,42.9
2017-07-02T10:58:10.584Z,42.9
2017-07-02T10:59:12.724Z,42.9
2017-07-02T11:00:14.176Z,42.9
2017-07-02T11:01:16.314Z,43.2
2017-07-02T11:02:18.119Z,42.9
2017-07-02T11:03:20.263Z,42.7
2017-07-02T11:04:22.067Z,42.6
2017-07-02T11:05:23.540Z,42.8
2017-07-02T11:06:25.691Z,42.7
2017-07-02T11:07:27.480Z,42.6
2017-07-02T11:08:28.624Z,42.6
2017-07-02T11:09:30.758Z,43.1
2017-07-02T11:10:32.567Z,43
2017-07-02T11:11:34.344Z,42.6
2017-07-02T11:12:36.485Z,42.7
2017-07-02T11:13:38.292Z,43
2017-07-02T11:14:39.763Z,42.6
2017-07-02T11:15:41.904Z,42.7
2017-07-02T11:16:43.687Z,42.6
2017-07-02T11:17:45.493Z,42.9
2017-07-02T11:18:47.300Z,42.6
2017-07-02T11:19:49.104Z,42.6
2017-07-02T11:20:50.891Z,42.8
2017-07-02T11:21:52.342Z,42.6
2017-07-02T11:22:53.811Z,42.7
2017-07-02T11:23:55.948Z,42.7
2017-07-02T11:24:57.757Z,42.7
2017-07-02T11:25:59.229Z,42.9
2017-07-02T11:27:01.368Z,42.8
2017-07-02T11:28:03.206Z,43
2017-07-02T11:29:05.011Z,42.8
2017-07-02T11:30:07.145Z,42.6
2017-07-02T11:31:09.281Z,42.6
2017-07-02T11:32:11.089Z,42.8
2017-07-02T11:33:12.900Z,43
2017-07-02T11:34:15.039Z,42.9
2017-07-02T11:35:16.840Z,43
2017-07-02T11:36:18.629Z,42.8
2017-07-02T11:37:20.075Z,43
2017-07-02T11:38:21.881Z,42.7
2017-07-02T11:39:23.683Z,42.7
2017-07-02T11:40:25.469Z,42.7
2017-07-02T11:41:27.603Z,42.7
2017-07-02T11:42:29.406Z,42.7
2017-07-02T11:43:31.187Z,43.1
2017-07-02T11:44:32.642Z,43
2017-07-02T11:45:34.089Z,42.6
2017-07-02T11:46:35.925Z,43
2017-07-02T11:47:38.062Z,42.6
2017-07-02T11:48:39.537Z,42.8
2017-07-02T11:49:41.343Z,42.6
2017-07-02T11:50:43.158Z,42.7
2017-07-02T11:51:44.965Z,42.7
2017-07-02T11:52:46.769Z,42.9
2017-07-02T11:53:48.218Z,42.7
2017-07-02T11:54:50.007Z,42.8
2017-07-02T11:55:51.789Z,42.8
2017-07-02T11:56:53.957Z,42.8
2017-07-02T11:57:55.740Z,42.9
2017-07-02T11:58:57.526Z,42.8
2017-07-02T11:59:59.664Z,42.7
2017-07-02T12:01:01.449Z,42.6
2017-07-02T12:02:03.585Z,42.6
2017-07-02T12:03:05.723Z,42.5
2017-07-02T12:04:07.532Z,42.9
2017-07-02T12:05:09.334Z,42.5
2017-07-02T12:06:11.140Z,43
2017-07-02T12:07:13.281Z,42.8
2017-07-02T12:08:14.728Z,42.7
2017-07-02T12:09:16.868Z,42.8
2017-07-02T12:10:18.671Z,42.7
2017-07-02T12:11:20.474Z,42.7
2017-07-02T12:12:21.588Z,42.7
2017-07-02T12:13:23.374Z,42.7
2017-07-02T12:14:25.179Z,43
2017-07-02T12:15:27.316Z,43
2017-07-02T12:16:28.789Z,43
2017-07-02T12:17:29.908Z,42.9
2017-07-02T12:18:31.713Z,42.7
2017-07-02T12:19:33.855Z,43.2
2017-07-02T12:20:35.993Z,42.9
2017-07-02T12:21:37.799Z,42.6
2017-07-02T12:22:39.248Z,43.1
2017-07-02T12:23:40.697Z,42.9
2017-07-02T12:24:42.833Z,43
2017-07-02T12:25:44.618Z,42.7
2017-07-02T12:26:46.423Z,42.7
2017-07-02T12:27:48.560Z,42.9
2017-07-02T12:28:50.694Z,42.6
2017-07-02T12:29:52.829Z,42.6
2017-07-02T12:30:54.618Z,42.7
2017-07-02T12:31:56.757Z,42.9
2017-07-02T12:32:58.891Z,43.2
2017-07-02T12:34:00.371Z,43.1
2017-07-02T12:35:02.505Z,43
2017-07-02T12:36:03.959Z,42.8
2017-07-02T12:37:05.763Z,43.1
2017-07-02T12:38:07.569Z,42.9
2017-07-02T12:39:09.704Z,43
2017-07-02T12:40:11.514Z,42.8
2017-07-02T12:41:13.297Z,43.2
2017-07-02T12:42:15.438Z,42.8
2017-07-02T12:43:16.886Z,43.1
2017-07-02T12:44:18.356Z,42.5
2017-07-02T12:45:20.492Z,43.1
2017-07-02T12:46:22.629Z,43.2
2017-07-02T12:47:24.431Z,43.1
2017-07-02T12:48:26.571Z,43.2
2017-07-02T12:49:28.709Z,42.7
2017-07-02T12:50:30.165Z,42.9
2017-07-02T12:51:32.302Z,43.1
2017-07-02T12:52:34.439Z,43.2
2017-07-02T12:53:36.577Z,42.9
2017-07-02T12:54:38.734Z,42.8
2017-07-02T12:55:40.513Z,42.7
2017-07-02T12:56:42.648Z,42.8
2017-07-02T12:57:44.450Z,43
2017-07-02T12:58:46.252Z,42.5
2017-07-02T12:59:48.389Z,43
2017-07-02T13:00:50.171Z,42.6
2017-07-02T13:01:51.975Z,43
2017-07-02T13:02:54.129Z,43
2017-07-02T13:03:56.252Z,43
2017-07-02T13:04:58.387Z,42.9
2017-07-02T13:06:00.189Z,43.2
2017-07-02T13:07:01.969Z,42.7
2017-07-02T13:08:03.772Z,43.1
2017-07-02T13:09:05.909Z,43.2
2017-07-02T13:10:07.715Z,42.8
2017-07-02T13:11:09.850Z,43.1
2017-07-02T13:12:11.657Z,43.1
2017-07-02T13:13:12.770Z,43.3
2017-07-02T13:14:14.580Z,43.1
2017-07-02T13:15:16.030Z,43.3
2017-07-02T13:16:17.817Z,43.1
2017-07-02T13:17:19.953Z,42.9
2017-07-02T13:18:22.094Z,43.1
2017-07-02T13:19:23.895Z,43.1
2017-07-02T13:20:25.370Z,43.2
2017-07-02T13:21:27.509Z,43.1
2017-07-02T13:22:28.959Z,43
2017-07-02T13:23:29.752Z,43
2017-07-02T13:24:31.222Z,42.9
2017-07-02T13:25:33.003Z,43.4
2017-07-02T13:26:34.807Z,42.9
2017-07-02T13:27:36.261Z,43.3
2017-07-02T13:28:37.730Z,42.7
2017-07-02T13:29:39.865Z,42.8
2017-07-02T13:30:42.004Z,43.2
2017-07-02T13:31:43.811Z,42.7
2017-07-02T13:32:45.260Z,42.8
2017-07-02T13:33:46.712Z,43.1
2017-07-02T13:34:48.854Z,43.2
2017-07-02T13:35:50.651Z,43.3
2017-07-02T13:36:52.123Z,43.4
2017-07-02T13:37:54.261Z,43.3
2017-07-02T13:38:56.072Z,43
2017-07-02T13:39:58.218Z,43.3
2017-07-02T13:40:59.327Z,42.8
2017-07-02T13:42:00.450Z,43.4
2017-07-02T13:43:02.253Z,42.9
2017-07-02T13:44:03.706Z,42.9
2017-07-02T13:45:05.840Z,43.1
2017-07-02T13:46:07.642Z,43.1
2017-07-02T13:47:09.550Z,43.5
2017-07-02T13:48:11.690Z,43.2